Unbenanntes Dokument
Flugplatz Bielefeld Platzwetter

 

Aktuelles Platzwetter am Flugplatz Bielefeld EDLI

21.02.19 ,13:59 Uhr

METAR EDLI 211358Z 26011KT 9999 ///040 ///081 10/07 Q1026

 

Windwerte

 

Wolkenuntergrenzen

Wind aktuell:250 ° mit 10 kt
Wind 10 min Extrem:
230 ° bis 300 ° mit 7 kt bis 16 kt
Seitenwindkomponente: 6.1 kt
Wolkengrenze 1: 7400 ft
Wolkengrenze 2:
Wolkengrenze 3:

Webcam

Temperatur

       

Sichtweite:

20.000 Meter

10.4 °C
Taupunkt: 7.3 °C
Luftfeuchtigkeit: 80 %

Luftdruck:

QNH: 1026 hPa (30.30 in Hg)
QFE: 1009 hPa (29.80 in Hg)

Diese Daten werden automatisch ermittelt bzw. übertragen und sind nicht geprüft. Für die Richtigkeit wird daher keine Gewähr übernommen. Sie ersetzen im übrigen nicht die Flugwetterberatung. Alle Zeitangaben beziehen sich auf UTC. Die Seite wird einmal die Minute aktualisiert! Sollten Sie ein ältere Seite haben, so drücken Sie bitte auf den Reload Button Ihres Browsers!